sensor_id;sensor_type;location;lat;lon;timestamp;temperature;humidity
16627;DHT22;8427;52.204;7.202;2023-05-20T00:01:46;12.30;73.10
16627;DHT22;8427;52.204;7.202;2023-05-20T00:04:14;12.30;73.30
16627;DHT22;8427;52.204;7.202;2023-05-20T00:06:42;12.40;72.50
16627;DHT22;8427;52.204;7.202;2023-05-20T00:09:10;12.30;73.20
16627;DHT22;8427;52.204;7.202;2023-05-20T00:11:38;12.20;72.80
16627;DHT22;8427;52.204;7.202;2023-05-20T00:14:06;12.30;73.40
16627;DHT22;8427;52.204;7.202;2023-05-20T00:16:35;12.20;72.90
16627;DHT22;8427;52.204;7.202;2023-05-20T00:19:03;12.30;73.40
16627;DHT22;8427;52.204;7.202;2023-05-20T00:21:31;12.30;73.40
16627;DHT22;8427;52.204;7.202;2023-05-20T00:24:00;12.20;73.80
16627;DHT22;8427;52.204;7.202;2023-05-20T00:26:28;12.10;74.20
16627;DHT22;8427;52.204;7.202;2023-05-20T00:28:56;12.00;74.50
16627;DHT22;8427;52.204;7.202;2023-05-20T00:31:24;12.00;74.60
16627;DHT22;8427;52.204;7.202;2023-05-20T00:33:53;12.00;74.60
16627;DHT22;8427;52.204;7.202;2023-05-20T00:36:21;11.90;74.80
16627;DHT22;8427;52.204;7.202;2023-05-20T00:38:49;12.10;73.10
16627;DHT22;8427;52.204;7.202;2023-05-20T00:41:17;12.20;74.00
16627;DHT22;8427;52.204;7.202;2023-05-20T00:43:45;12.00;73.50
16627;DHT22;8427;52.204;7.202;2023-05-20T00:46:13;12.10;72.80
16627;DHT22;8427;52.204;7.202;2023-05-20T00:48:42;12.20;73.20
16627;DHT22;8427;52.204;7.202;2023-05-20T00:51:12;12.20;72.80
16627;DHT22;8427;52.204;7.202;2023-05-20T00:53:41;12.30;73.00
16627;DHT22;8427;52.204;7.202;2023-05-20T00:56:10;12.20;72.40
16627;DHT22;8427;52.204;7.202;2023-05-20T00:58:39;12.20;72.10
16627;DHT22;8427;52.204;7.202;2023-05-20T01:01:07;12.30;72.40
16627;DHT22;8427;52.204;7.202;2023-05-20T01:03:35;12.20;72.60
16627;DHT22;8427;52.204;7.202;2023-05-20T01:06:03;12.10;73.10
16627;DHT22;8427;52.204;7.202;2023-05-20T01:08:32;12.10;73.70
16627;DHT22;8427;52.204;7.202;2023-05-20T01:11:05;12.00;73.70
16627;DHT22;8427;52.204;7.202;2023-05-20T01:13:38;11.80;74.00
16627;DHT22;8427;52.204;7.202;2023-05-20T01:16:09;11.70;73.90
16627;DHT22;8427;52.204;7.202;2023-05-20T01:18:38;11.70;74.70
16627;DHT22;8427;52.204;7.202;2023-05-20T01:21:10;11.70;74.20
16627;DHT22;8427;52.204;7.202;2023-05-20T01:23:40;11.60;74.70
16627;DHT22;8427;52.204;7.202;2023-05-20T01:26:09;11.60;75.50
16627;DHT22;8427;52.204;7.202;2023-05-20T01:28:40;11.50;75.70
16627;DHT22;8427;52.204;7.202;2023-05-20T01:31:13;11.50;75.70
16627;DHT22;8427;52.204;7.202;2023-05-20T01:33:42;11.30;75.50
16627;DHT22;8427;52.204;7.202;2023-05-20T01:36:11;11.30;76.60
16627;DHT22;8427;52.204;7.202;2023-05-20T01:38:42;11.20;77.30
16627;DHT22;8427;52.204;7.202;2023-05-20T01:41:11;11.10;77.30
16627;DHT22;8427;52.204;7.202;2023-05-20T01:43:39;11.00;77.10
16627;DHT22;8427;52.204;7.202;2023-05-20T01:46:07;11.00;77.20
16627;DHT22;8427;52.204;7.202;2023-05-20T01:48:35;11.00;77.40
16627;DHT22;8427;52.204;7.202;2023-05-20T01:51:04;10.90;77.60
16627;DHT22;8427;52.204;7.202;2023-05-20T01:53:32;10.90;77.60
16627;DHT22;8427;52.204;7.202;2023-05-20T01:56:01;10.90;78.10
16627;DHT22;8427;52.204;7.202;2023-05-20T01:58:29;10.90;78.60
16627;DHT22;8427;52.204;7.202;2023-05-20T02:00:57;10.70;78.70
16627;DHT22;8427;52.204;7.202;2023-05-20T02:03:25;10.70;78.70
16627;DHT22;8427;52.204;7.202;2023-05-20T02:05:53;10.60;79.20
16627;DHT22;8427;52.204;7.202;2023-05-20T02:08:21;10.50;79.30
16627;DHT22;8427;52.204;7.202;2023-05-20T02:10:49;10.50;79.70
16627;DHT22;8427;52.204;7.202;2023-05-20T02:13:19;10.30;79.80
16627;DHT22;8427;52.204;7.202;2023-05-20T02:15:47;10.20;79.90
16627;DHT22;8427;52.204;7.202;2023-05-20T02:18:15;10.30;80.20
16627;DHT22;8427;52.204;7.202;2023-05-20T02:20:44;10.30;80.50
16627;DHT22;8427;52.204;7.202;2023-05-20T02:23:12;10.20;80.80
16627;DHT22;8427;52.204;7.202;2023-05-20T02:25:40;10.10;80.70
16627;DHT22;8427;52.204;7.202;2023-05-20T02:28:08;10.10;80.80
16627;DHT22;8427;52.204;7.202;2023-05-20T02:30:38;10.00;81.10
16627;DHT22;8427;52.204;7.202;2023-05-20T02:33:06;10.10;81.00
16627;DHT22;8427;52.204;7.202;2023-05-20T02:35:35;10.00;81.00
16627;DHT22;8427;52.204;7.202;2023-05-20T02:38:03;10.00;81.40
16627;DHT22;8427;52.204;7.202;2023-05-20T02:40:31;9.90;81.40
16627;DHT22;8427;52.204;7.202;2023-05-20T02:42:59;9.90;81.60
16627;DHT22;8427;52.204;7.202;2023-05-20T02:45:27;9.90;81.50
16627;DHT22;8427;52.204;7.202;2023-05-20T02:47:56;9.70;81.50
16627;DHT22;8427;52.204;7.202;2023-05-20T02:50:24;9.90;81.40
16627;DHT22;8427;52.204;7.202;2023-05-20T02:52:52;9.90;81.60
16627;DHT22;8427;52.204;7.202;2023-05-20T02:55:20;9.90;81.90
16627;DHT22;8427;52.204;7.202;2023-05-20T02:57:49;9.90;81.40
16627;DHT22;8427;52.204;7.202;2023-05-20T03:00:17;9.90;81.40
16627;DHT22;8427;52.204;7.202;2023-05-20T03:02:45;9.80;81.10
16627;DHT22;8427;52.204;7.202;2023-05-20T03:05:15;10.00;80.80
16627;DHT22;8427;52.204;7.202;2023-05-20T03:07:43;9.90;80.90
16627;DHT22;8427;52.204;7.202;2023-05-20T03:10:11;9.90;81.00
16627;DHT22;8427;52.204;7.202;2023-05-20T03:12:39;10.00;81.10
16627;DHT22;8427;52.204;7.202;2023-05-20T03:15:08;9.70;81.80
16627;DHT22;8427;52.204;7.202;2023-05-20T03:17:36;9.80;81.90
16627;DHT22;8427;52.204;7.202;2023-05-20T03:20:05;9.70;81.80
16627;DHT22;8427;52.204;7.202;2023-05-20T03:22:35;9.70;81.90
16627;DHT22;8427;52.204;7.202;2023-05-20T03:25:04;9.60;82.00
16627;DHT22;8427;52.204;7.202;2023-05-20T03:27:32;9.80;81.90
16627;DHT22;8427;52.204;7.202;2023-05-20T03:30:00;9.70;82.10
16627;DHT22;8427;52.204;7.202;2023-05-20T03:32:28;9.60;82.00
16627;DHT22;8427;52.204;7.202;2023-05-20T03:34:56;9.80;81.40
16627;DHT22;8427;52.204;7.202;2023-05-20T03:37:26;9.90;81.30
16627;DHT22;8427;52.204;7.202;2023-05-20T03:39:55;9.80;81.00
16627;DHT22;8427;52.204;7.202;2023-05-20T03:42:23;9.70;80.80
16627;DHT22;8427;52.204;7.202;2023-05-20T03:44:51;9.90;80.80
16627;DHT22;8427;52.204;7.202;2023-05-20T03:47:19;9.70;80.80
16627;DHT22;8427;52.204;7.202;2023-05-20T03:49:48;10.00;80.60
16627;DHT22;8427;52.204;7.202;2023-05-20T03:52:16;10.00;80.70
16627;DHT22;8427;52.204;7.202;2023-05-20T03:54:43;9.90;80.60
16627;DHT22;8427;52.204;7.202;2023-05-20T03:57:13;10.00;80.30
16627;DHT22;8427;52.204;7.202;2023-05-20T03:59:41;10.10;80.50
16627;DHT22;8427;52.204;7.202;2023-05-20T04:02:09;10.00;80.40
16627;DHT22;8427;52.204;7.202;2023-05-20T04:04:37;10.20;80.20
16627;DHT22;8427;52.204;7.202;2023-05-20T04:07:08;10.10;79.90
16627;DHT22;8427;52.204;7.202;2023-05-20T04:09:37;10.20;80.20
16627;DHT22;8427;52.204;7.202;2023-05-20T04:12:05;10.20;79.60
16627;DHT22;8427;52.204;7.202;2023-05-20T04:14:34;10.20;79.80
16627;DHT22;8427;52.204;7.202;2023-05-20T04:17:04;10.30;79.60
16627;DHT22;8427;52.204;7.202;2023-05-20T04:19:32;10.20;79.60
16627;DHT22;8427;52.204;7.202;2023-05-20T04:22:01;10.20;79.30
16627;DHT22;8427;52.204;7.202;2023-05-20T04:24:29;10.20;79.50
16627;DHT22;8427;52.204;7.202;2023-05-20T04:26:57;10.30;79.40
16627;DHT22;8427;52.204;7.202;2023-05-20T04:29:25;10.30;79.60
16627;DHT22;8427;52.204;7.202;2023-05-20T04:31:55;10.30;79.30
16627;DHT22;8427;52.204;7.202;2023-05-20T04:34:24;10.40;79.00
16627;DHT22;8427;52.204;7.202;2023-05-20T04:36:52;10.40;79.10
16627;DHT22;8427;52.204;7.202;2023-05-20T04:39:20;10.50;78.90
16627;DHT22;8427;52.204;7.202;2023-05-20T04:41:48;10.50;77.80
16627;DHT22;8427;52.204;7.202;2023-05-20T04:44:16;10.60;78.20
16627;DHT22;8427;52.204;7.202;2023-05-20T04:46:44;10.70;77.60
16627;DHT22;8427;52.204;7.202;2023-05-20T04:49:14;10.80;77.70
16627;DHT22;8427;52.204;7.202;2023-05-20T04:51:42;10.80;77.40
16627;DHT22;8427;52.204;7.202;2023-05-20T04:54:10;11.00;76.70
16627;DHT22;8427;52.204;7.202;2023-05-20T04:56:38;11.10;77.30
16627;DHT22;8427;52.204;7.202;2023-05-20T04:59:06;11.10;75.90
16627;DHT22;8427;52.204;7.202;2023-05-20T05:01:35;11.20;76.60
16627;DHT22;8427;52.204;7.202;2023-05-20T05:04:03;11.20;75.60
16627;DHT22;8427;52.204;7.202;2023-05-20T05:06:33;11.30;75.80
16627;DHT22;8427;52.204;7.202;2023-05-20T05:09:01;11.30;75.00
16627;DHT22;8427;52.204;7.202;2023-05-20T05:11:30;11.50;75.50
16627;DHT22;8427;52.204;7.202;2023-05-20T05:13:58;11.60;74.20
16627;DHT22;8427;52.204;7.202;2023-05-20T05:16:26;11.70;73.60
16627;DHT22;8427;52.204;7.202;2023-05-20T05:18:54;11.60;72.90
16627;DHT22;8427;52.204;7.202;2023-05-20T05:21:22;11.60;72.00
16627;DHT22;8427;52.204;7.202;2023-05-20T05:23:51;11.80;72.60
16627;DHT22;8427;52.204;7.202;2023-05-20T05:26:23;11.90;73.00
16627;DHT22;8427;52.204;7.202;2023-05-20T05:28:52;12.10;71.20
16627;DHT22;8427;52.204;7.202;2023-05-20T05:31:20;12.10;71.80
16627;DHT22;8427;52.204;7.202;2023-05-20T05:33:48;12.20;69.80
16627;DHT22;8427;52.204;7.202;2023-05-20T05:36:16;12.20;70.00
16627;DHT22;8427;52.204;7.202;2023-05-20T05:38:44;12.40;69.50
16627;DHT22;8427;52.204;7.202;2023-05-20T05:41:14;12.60;69.50
16627;DHT22;8427;52.204;7.202;2023-05-20T05:43:42;12.60;68.30
16627;DHT22;8427;52.204;7.202;2023-05-20T05:46:10;12.60;67.90
16627;DHT22;8427;52.204;7.202;2023-05-20T05:48:38;12.70;68.00
16627;DHT22;8427;52.204;7.202;2023-05-20T05:51:08;12.90;69.40
16627;DHT22;8427;52.204;7.202;2023-05-20T05:53:35;12.90;66.60
16627;DHT22;8427;52.204;7.202;2023-05-20T05:56:04;12.90;67.40
16627;DHT22;8427;52.204;7.202;2023-05-20T05:58:34;13.00;67.10
16627;DHT22;8427;52.204;7.202;2023-05-20T06:01:01;13.10;66.10
16627;DHT22;8427;52.204;7.202;2023-05-20T06:03:30;13.20;67.10
16627;DHT22;8427;52.204;7.202;2023-05-20T06:05:58;13.40;67.10
16627;DHT22;8427;52.204;7.202;2023-05-20T06:08:26;13.50;65.00
16627;DHT22;8427;52.204;7.202;2023-05-20T06:10:54;13.60;64.30
16627;DHT22;8427;52.204;7.202;2023-05-20T06:13:22;13.60;65.60
16627;DHT22;8427;52.204;7.202;2023-05-20T06:15:51;13.70;63.70
16627;DHT22;8427;52.204;7.202;2023-05-20T06:18:19;13.70;63.50
16627;DHT22;8427;52.204;7.202;2023-05-20T06:20:53;13.60;62.70
16627;DHT22;8427;52.204;7.202;2023-05-20T06:23:21;13.70;64.00
16627;DHT22;8427;52.204;7.202;2023-05-20T06:25:50;13.90;63.40
16627;DHT22;8427;52.204;7.202;2023-05-20T06:28:19;14.00;64.80
16627;DHT22;8427;52.204;7.202;2023-05-20T06:30:47;14.10;64.60
16627;DHT22;8427;52.204;7.202;2023-05-20T06:33:16;14.20;62.20
16627;DHT22;8427;52.204;7.202;2023-05-20T06:35:46;14.20;62.20
16627;DHT22;8427;52.204;7.202;2023-05-20T06:38:14;14.30;63.60
16627;DHT22;8427;52.204;7.202;2023-05-20T06:40:42;14.40;62.80
16627;DHT22;8427;52.204;7.202;2023-05-20T06:43:10;14.50;62.00
16627;DHT22;8427;52.204;7.202;2023-05-20T06:45:38;14.40;61.00
16627;DHT22;8427;52.204;7.202;2023-05-20T06:48:06;14.50;62.00
16627;DHT22;8427;52.204;7.202;2023-05-20T06:50:35;14.60;61.10
16627;DHT22;8427;52.204;7.202;2023-05-20T06:53:03;14.50;61.20
16627;DHT22;8427;52.204;7.202;2023-05-20T06:55:31;14.60;61.30
16627;DHT22;8427;52.204;7.202;2023-05-20T06:57:59;14.70;60.70
16627;DHT22;8427;52.204;7.202;2023-05-20T07:00:27;14.50;60.80
16627;DHT22;8427;52.204;7.202;2023-05-20T07:02:55;14.70;62.30
16627;DHT22;8427;52.204;7.202;2023-05-20T07:05:23;14.70;61.50
16627;DHT22;8427;52.204;7.202;2023-05-20T07:07:54;14.90;61.80
16627;DHT22;8427;52.204;7.202;2023-05-20T07:10:22;15.00;60.60
16627;DHT22;8427;52.204;7.202;2023-05-20T07:12:50;15.10;59.20
16627;DHT22;8427;52.204;7.202;2023-05-20T07:15:18;15.30;59.70
16627;DHT22;8427;52.204;7.202;2023-05-20T07:17:46;15.40;58.60
16627;DHT22;8427;52.204;7.202;2023-05-20T07:20:14;15.30;59.20
16627;DHT22;8427;52.204;7.202;2023-05-20T07:22:42;15.40;58.90
16627;DHT22;8427;52.204;7.202;2023-05-20T07:25:12;15.60;58.40
16627;DHT22;8427;52.204;7.202;2023-05-20T07:27:40;15.60;57.90
16627;DHT22;8427;52.204;7.202;2023-05-20T07:30:08;15.60;58.60
16627;DHT22;8427;52.204;7.202;2023-05-20T07:32:36;15.80;58.00
16627;DHT22;8427;52.204;7.202;2023-05-20T07:35:05;16.00;58.80
16627;DHT22;8427;52.204;7.202;2023-05-20T07:37:33;16.20;57.60
16627;DHT22;8427;52.204;7.202;2023-05-20T07:40:01;16.40;60.10
16627;DHT22;8427;52.204;7.202;2023-05-20T07:42:32;16.50;54.60
16627;DHT22;8427;52.204;7.202;2023-05-20T07:45:00;16.30;54.00
16627;DHT22;8427;52.204;7.202;2023-05-20T07:47:30;16.40;54.80
16627;DHT22;8427;52.204;7.202;2023-05-20T07:49:59;16.30;53.30
16627;DHT22;8427;52.204;7.202;2023-05-20T07:52:27;16.30;55.40
16627;DHT22;8427;52.204;7.202;2023-05-20T07:54:55;16.30;53.70
16627;DHT22;8427;52.204;7.202;2023-05-20T07:57:23;16.30;54.10
16627;DHT22;8427;52.204;7.202;2023-05-20T07:59:53;16.50;53.60
16627;DHT22;8427;52.204;7.202;2023-05-20T08:02:20;16.50;53.30
16627;DHT22;8427;52.204;7.202;2023-05-20T08:04:48;16.60;52.90
16627;DHT22;8427;52.204;7.202;2023-05-20T08:07:16;16.50;52.00
16627;DHT22;8427;52.204;7.202;2023-05-20T08:09:44;16.60;51.80
16627;DHT22;8427;52.204;7.202;2023-05-20T08:12:12;16.50;52.60
16627;DHT22;8427;52.204;7.202;2023-05-20T08:14:40;16.50;51.70
16627;DHT22;8427;52.204;7.202;2023-05-20T08:17:10;16.70;52.40
16627;DHT22;8427;52.204;7.202;2023-05-20T08:19:38;16.70;51.90
16627;DHT22;8427;52.204;7.202;2023-05-20T08:22:06;16.80;53.20
16627;DHT22;8427;52.204;7.202;2023-05-20T08:24:34;16.90;50.80
16627;DHT22;8427;52.204;7.202;2023-05-20T08:27:02;17.10;52.00
16627;DHT22;8427;52.204;7.202;2023-05-20T08:29:30;17.20;51.40
16627;DHT22;8427;52.204;7.202;2023-05-20T08:31:58;17.20;51.30
16627;DHT22;8427;52.204;7.202;2023-05-20T08:34:28;17.30;52.30
16627;DHT22;8427;52.204;7.202;2023-05-20T08:36:56;17.50;51.90
16627;DHT22;8427;52.204;7.202;2023-05-20T08:39:24;17.60;53.50
16627;DHT22;8427;52.204;7.202;2023-05-20T08:41:52;17.60;49.40
16627;DHT22;8427;52.204;7.202;2023-05-20T08:44:21;17.30;50.60
16627;DHT22;8427;52.204;7.202;2023-05-20T08:46:52;17.40;51.30
16627;DHT22;8427;52.204;7.202;2023-05-20T08:49:21;17.80;51.10
16627;DHT22;8427;52.204;7.202;2023-05-20T08:51:50;17.80;48.90
16627;DHT22;8427;52.204;7.202;2023-05-20T08:54:20;17.60;49.60
16627;DHT22;8427;52.204;7.202;2023-05-20T08:56:49;17.50;49.90
16627;DHT22;8427;52.204;7.202;2023-05-20T08:59:19;17.50;50.20
16627;DHT22;8427;52.204;7.202;2023-05-20T09:01:49;17.70;50.90
16627;DHT22;8427;52.204;7.202;2023-05-20T09:04:17;17.50;52.30
16627;DHT22;8427;52.204;7.202;2023-05-20T09:06:45;17.50;50.70
16627;DHT22;8427;52.204;7.202;2023-05-20T09:09:15;17.50;52.80
16627;DHT22;8427;52.204;7.202;2023-05-20T09:11:43;17.30;51.80
16627;DHT22;8427;52.204;7.202;2023-05-20T09:14:10;17.20;52.00
16627;DHT22;8427;52.204;7.202;2023-05-20T09:16:39;17.10;51.30
16627;DHT22;8427;52.204;7.202;2023-05-20T09:19:08;17.20;52.10
16627;DHT22;8427;52.204;7.202;2023-05-20T09:21:37;17.30;50.60
16627;DHT22;8427;52.204;7.202;2023-05-20T09:24:05;17.60;49.60
16627;DHT22;8427;52.204;7.202;2023-05-20T09:26:34;17.60;50.20
16627;DHT22;8427;52.204;7.202;2023-05-20T09:29:03;17.80;51.20
16627;DHT22;8427;52.204;7.202;2023-05-20T09:31:31;17.90;51.30
16627;DHT22;8427;52.204;7.202;2023-05-20T09:34:00;18.10;50.80
16627;DHT22;8427;52.204;7.202;2023-05-20T09:36:29;18.30;49.10
16627;DHT22;8427;52.204;7.202;2023-05-20T09:38:59;18.40;48.90
16627;DHT22;8427;52.204;7.202;2023-05-20T09:41:36;18.60;49.30
16627;DHT22;8427;52.204;7.202;2023-05-20T09:44:05;18.70;49.20
16627;DHT22;8427;52.204;7.202;2023-05-20T09:46:33;18.80;48.30
16627;DHT22;8427;52.204;7.202;2023-05-20T09:49:03;18.70;50.20
16627;DHT22;8427;52.204;7.202;2023-05-20T09:51:32;18.80;49.30
16627;DHT22;8427;52.204;7.202;2023-05-20T09:54:01;18.70;48.40
16627;DHT22;8427;52.204;7.202;2023-05-20T09:56:31;19.00;48.40
16627;DHT22;8427;52.204;7.202;2023-05-20T09:59:01;18.90;46.90
16627;DHT22;8427;52.204;7.202;2023-05-20T10:01:32;19.00;48.10
16627;DHT22;8427;52.204;7.202;2023-05-20T10:04:00;19.20;49.10
16627;DHT22;8427;52.204;7.202;2023-05-20T10:06:43;19.40;49.10
16627;DHT22;8427;52.204;7.202;2023-05-20T10:09:26;19.20;46.00
16627;DHT22;8427;52.204;7.202;2023-05-20T10:12:00;18.80;48.00
16627;DHT22;8427;52.204;7.202;2023-05-20T10:14:42;18.90;49.30
16627;DHT22;8427;52.204;7.202;2023-05-20T10:17:19;19.10;49.70
16627;DHT22;8427;52.204;7.202;2023-05-20T10:19:48;19.50;51.30
16627;DHT22;8427;52.204;7.202;2023-05-20T10:22:25;19.60;46.90
16627;DHT22;8427;52.204;7.202;2023-05-20T10:24:57;19.70;45.40
16627;DHT22;8427;52.204;7.202;2023-05-20T10:27:26;19.80;46.60
16627;DHT22;8427;52.204;7.202;2023-05-20T10:29:56;20.10;46.00
16627;DHT22;8427;52.204;7.202;2023-05-20T10:32:25;19.90;45.00
16627;DHT22;8427;52.204;7.202;2023-05-20T10:34:57;20.00;45.60
16627;DHT22;8427;52.204;7.202;2023-05-20T10:37:28;19.70;46.10
16627;DHT22;8427;52.204;7.202;2023-05-20T10:40:05;19.70;45.20
16627;DHT22;8427;52.204;7.202;2023-05-20T10:42:34;19.80;47.10
16627;DHT22;8427;52.204;7.202;2023-05-20T10:45:04;19.90;47.60
16627;DHT22;8427;52.204;7.202;2023-05-20T10:47:33;19.80;45.70
16627;DHT22;8427;52.204;7.202;2023-05-20T10:50:02;19.60;45.90
16627;DHT22;8427;52.204;7.202;2023-05-20T10:52:32;19.70;49.90
16627;DHT22;8427;52.204;7.202;2023-05-20T10:55:00;19.50;45.80
16627;DHT22;8427;52.204;7.202;2023-05-20T10:57:29;19.60;47.10
16627;DHT22;8427;52.204;7.202;2023-05-20T10:59:57;19.80;49.30
16627;DHT22;8427;52.204;7.202;2023-05-20T11:02:28;20.00;45.90
16627;DHT22;8427;52.204;7.202;2023-05-20T11:04:56;20.10;46.20
16627;DHT22;8427;52.204;7.202;2023-05-20T11:07:25;20.20;45.40
16627;DHT22;8427;52.204;7.202;2023-05-20T11:09:54;20.00;44.80
16627;DHT22;8427;52.204;7.202;2023-05-20T11:12:23;19.80;46.20
16627;DHT22;8427;52.204;7.202;2023-05-20T11:14:51;19.90;46.80
16627;DHT22;8427;52.204;7.202;2023-05-20T11:17:20;19.90;45.90
16627;DHT22;8427;52.204;7.202;2023-05-20T11:19:49;20.20;47.30
16627;DHT22;8427;52.204;7.202;2023-05-20T11:22:17;20.10;44.80
16627;DHT22;8427;52.204;7.202;2023-05-20T11:24:45;20.20;44.40
16627;DHT22;8427;52.204;7.202;2023-05-20T11:27:13;20.30;44.30
16627;DHT22;8427;52.204;7.202;2023-05-20T11:29:41;20.30;44.40
16627;DHT22;8427;52.204;7.202;2023-05-20T11:32:09;20.10;45.20
16627;DHT22;8427;52.204;7.202;2023-05-20T11:34:38;19.90;44.70
16627;DHT22;8427;52.204;7.202;2023-05-20T11:37:10;19.90;46.30
16627;DHT22;8427;52.204;7.202;2023-05-20T11:39:38;20.20;47.40
16627;DHT22;8427;52.204;7.202;2023-05-20T11:42:06;20.30;44.50
16627;DHT22;8427;52.204;7.202;2023-05-20T11:44:34;20.40;47.10
16627;DHT22;8427;52.204;7.202;2023-05-20T11:47:02;20.70;44.50
16627;DHT22;8427;52.204;7.202;2023-05-20T11:49:38;21.00;44.20
16627;DHT22;8427;52.204;7.202;2023-05-20T11:52:09;21.10;43.10
16627;DHT22;8427;52.204;7.202;2023-05-20T11:54:38;20.90;42.20
16627;DHT22;8427;52.204;7.202;2023-05-20T11:57:06;20.80;43.40
16627;DHT22;8427;52.204;7.202;2023-05-20T11:59:34;20.40;43.60
16627;DHT22;8427;52.204;7.202;2023-05-20T12:02:02;20.30;42.70
16627;DHT22;8427;52.204;7.202;2023-05-20T12:04:30;20.50;42.60
16627;DHT22;8427;52.204;7.202;2023-05-20T12:06:58;20.80;43.00
16627;DHT22;8427;52.204;7.202;2023-05-20T12:09:28;21.00;43.50
16627;DHT22;8427;52.204;7.202;2023-05-20T12:11:56;21.20;41.30
16627;DHT22;8427;52.204;7.202;2023-05-20T12:14:25;21.20;42.10
16627;DHT22;8427;52.204;7.202;2023-05-20T12:16:52;21.40;42.20
16627;DHT22;8427;52.204;7.202;2023-05-20T12:19:20;21.50;41.20
16627;DHT22;8427;52.204;7.202;2023-05-20T12:21:48;21.60;41.20
16627;DHT22;8427;52.204;7.202;2023-05-20T12:24:18;21.70;40.80
16627;DHT22;8427;52.204;7.202;2023-05-20T12:26:48;21.90;40.80
16627;DHT22;8427;52.204;7.202;2023-05-20T12:29:16;22.10;40.10
16627;DHT22;8427;52.204;7.202;2023-05-20T12:31:44;21.90;41.40
16627;DHT22;8427;52.204;7.202;2023-05-20T12:34:12;21.60;40.70
16627;DHT22;8427;52.204;7.202;2023-05-20T12:36:40;21.60;41.10
16627;DHT22;8427;52.204;7.202;2023-05-20T12:39:08;21.80;40.80
16627;DHT22;8427;52.204;7.202;2023-05-20T12:41:36;22.00;40.40
16627;DHT22;8427;52.204;7.202;2023-05-20T12:44:06;22.20;42.60
16627;DHT22;8427;52.204;7.202;2023-05-20T12:46:34;22.20;40.30
16627;DHT22;8427;52.204;7.202;2023-05-20T12:49:03;21.80;42.40
16627;DHT22;8427;52.204;7.202;2023-05-20T12:51:31;21.70;42.50
16627;DHT22;8427;52.204;7.202;2023-05-20T12:53:59;21.60;43.80
16627;DHT22;8427;52.204;7.202;2023-05-20T12:56:27;21.50;42.00
16627;DHT22;8427;52.204;7.202;2023-05-20T12:58:56;21.20;42.10
16627;DHT22;8427;52.204;7.202;2023-05-20T13:01:25;21.30;45.10
16627;DHT22;8427;52.204;7.202;2023-05-20T13:03:53;21.50;42.00
16627;DHT22;8427;52.204;7.202;2023-05-20T13:06:21;21.30;40.90
16627;DHT22;8427;52.204;7.202;2023-05-20T13:08:49;21.30;41.70
16627;DHT22;8427;52.204;7.202;2023-05-20T13:11:17;21.30;43.60
16627;DHT22;8427;52.204;7.202;2023-05-20T13:13:45;21.60;44.50
16627;DHT22;8427;52.204;7.202;2023-05-20T13:16:13;21.60;42.00
16627;DHT22;8427;52.204;7.202;2023-05-20T13:18:43;21.50;42.50
16627;DHT22;8427;52.204;7.202;2023-05-20T13:21:12;21.70;42.70
16627;DHT22;8427;52.204;7.202;2023-05-20T13:23:40;21.60;41.80
16627;DHT22;8427;52.204;7.202;2023-05-20T13:26:08;21.20;41.80
16627;DHT22;8427;52.204;7.202;2023-05-20T13:28:36;21.30;42.30
16627;DHT22;8427;52.204;7.202;2023-05-20T13:31:05;21.40;42.50
16627;DHT22;8427;52.204;7.202;2023-05-20T13:33:33;21.20;42.50
16627;DHT22;8427;52.204;7.202;2023-05-20T13:36:03;20.90;42.70
16627;DHT22;8427;52.204;7.202;2023-05-20T13:38:31;20.90;45.00
16627;DHT22;8427;52.204;7.202;2023-05-20T13:41:01;21.10;44.70
16627;DHT22;8427;52.204;7.202;2023-05-20T13:43:30;21.40;44.20
16627;DHT22;8427;52.204;7.202;2023-05-20T13:45:58;21.80;42.70
16627;DHT22;8427;52.204;7.202;2023-05-20T13:48:27;21.90;42.90
16627;DHT22;8427;52.204;7.202;2023-05-20T13:50:55;22.10;43.40
16627;DHT22;8427;52.204;7.202;2023-05-20T13:53:24;22.00;40.50
16627;DHT22;8427;52.204;7.202;2023-05-20T13:55:52;21.90;41.40
16627;DHT22;8427;52.204;7.202;2023-05-20T13:58:20;21.80;43.00
16627;DHT22;8427;52.204;7.202;2023-05-20T14:00:48;21.80;41.80
16627;DHT22;8427;52.204;7.202;2023-05-20T14:03:16;21.60;41.40
16627;DHT22;8427;52.204;7.202;2023-05-20T14:05:44;21.40;43.00
16627;DHT22;8427;52.204;7.202;2023-05-20T14:08:12;21.60;41.70
16627;DHT22;8427;52.204;7.202;2023-05-20T14:10:41;21.30;42.70
16627;DHT22;8427;52.204;7.202;2023-05-20T14:13:09;21.10;42.30
16627;DHT22;8427;52.204;7.202;2023-05-20T14:15:37;20.70;43.20
16627;DHT22;8427;52.204;7.202;2023-05-20T14:18:05;20.40;44.30
16627;DHT22;8427;52.204;7.202;2023-05-20T14:20:33;20.40;45.60
16627;DHT22;8427;52.204;7.202;2023-05-20T14:23:01;20.40;45.00
16627;DHT22;8427;52.204;7.202;2023-05-20T14:25:29;20.30;44.30
16627;DHT22;8427;52.204;7.202;2023-05-20T14:27:59;20.20;44.20
16627;DHT22;8427;52.204;7.202;2023-05-20T14:30:26;20.40;43.80
16627;DHT22;8427;52.204;7.202;2023-05-20T14:32:54;20.70;45.20
16627;DHT22;8427;52.204;7.202;2023-05-20T14:35:23;20.90;43.90
16627;DHT22;8427;52.204;7.202;2023-05-20T14:37:51;20.80;43.20
16627;DHT22;8427;52.204;7.202;2023-05-20T14:40:19;20.70;43.10
16627;DHT22;8427;52.204;7.202;2023-05-20T14:42:47;20.50;42.90
16627;DHT22;8427;52.204;7.202;2023-05-20T14:45:17;20.20;43.80
16627;DHT22;8427;52.204;7.202;2023-05-20T14:47:45;20.00;44.60
16627;DHT22;8427;52.204;7.202;2023-05-20T14:50:13;20.10;44.60
16627;DHT22;8427;52.204;7.202;2023-05-20T14:52:41;20.30;45.60
16627;DHT22;8427;52.204;7.202;2023-05-20T14:55:09;20.40;45.20
16627;DHT22;8427;52.204;7.202;2023-05-20T14:57:37;20.30;44.00
16627;DHT22;8427;52.204;7.202;2023-05-20T15:00:06;19.80;44.70
16627;DHT22;8427;52.204;7.202;2023-05-20T15:02:35;19.80;45.30
16627;DHT22;8427;52.204;7.202;2023-05-20T15:05:04;19.90;46.30
16627;DHT22;8427;52.204;7.202;2023-05-20T15:07:32;19.90;44.90
16627;DHT22;8427;52.204;7.202;2023-05-20T15:10:00;20.00;45.00
16627;DHT22;8427;52.204;7.202;2023-05-20T15:12:28;20.20;44.60
16627;DHT22;8427;52.204;7.202;2023-05-20T15:14:56;20.20;44.20
16627;DHT22;8427;52.204;7.202;2023-05-20T15:17:24;20.20;46.50
16627;DHT22;8427;52.204;7.202;2023-05-20T15:19:53;20.50;46.30
16627;DHT22;8427;52.204;7.202;2023-05-20T15:22:21;20.40;44.20
16627;DHT22;8427;52.204;7.202;2023-05-20T15:24:49;20.40;44.20
16627;DHT22;8427;52.204;7.202;2023-05-20T15:27:17;20.80;44.50
16627;DHT22;8427;52.204;7.202;2023-05-20T15:29:45;21.10;43.40
16627;DHT22;8427;52.204;7.202;2023-05-20T15:32:14;21.00;43.80
16627;DHT22;8427;52.204;7.202;2023-05-20T15:34:42;21.40;44.50
16627;DHT22;8427;52.204;7.202;2023-05-20T15:37:11;21.90;42.30
16627;DHT22;8427;52.204;7.202;2023-05-20T15:39:39;22.70;41.30
16627;DHT22;8427;52.204;7.202;2023-05-20T15:42:07;23.50;41.10
16627;DHT22;8427;52.204;7.202;2023-05-20T15:44:39;22.90;39.50
16627;DHT22;8427;52.204;7.202;2023-05-20T15:47:07;22.90;40.50
16627;DHT22;8427;52.204;7.202;2023-05-20T15:49:35;23.30;39.70
16627;DHT22;8427;52.204;7.202;2023-05-20T15:52:03;23.70;38.70
16627;DHT22;8427;52.204;7.202;2023-05-20T15:54:33;24.40;38.50
16627;DHT22;8427;52.204;7.202;2023-05-20T15:57:01;24.10;39.80